Time;durP1;ratioP1;P1;durP2;ratioP2;P2;SDS_P1;SDS_P2;PMS_P1;PMS_P2;Temp;Humidity;BMP_temperature;BMP_pressure;BME280_temperature;BME280_humidity;BME280_pressure;Samples;Min_cycle;Max_cycle;Signal;HPM_P1;HPM_P2
2022/06/25 00:01:06;;;;;;;10.38;2.78;;;18.00;99.90;;;;;;5011192;28;20146;-73
2022/06/25 00:03:32;;;;;;;4.20;2.35;;;18.00;99.90;;;;;;4994730;28;20046;-67
2022/06/25 00:05:57;;;;;;;7.00;2.55;;;18.00;99.90;;;;;;4994306;28;20491;-67
2022/06/25 00:08:23;;;;;;;5.40;2.97;;;18.00;99.90;;;;;;4994339;28;20026;-77
2022/06/25 00:10:49;;;;;;;6.70;4.13;;;18.00;99.90;;;;;;5005423;28;20025;-72
2022/06/25 00:13:14;;;;;;;7.38;3.30;;;18.10;99.90;;;;;;4997610;28;20033;-73
2022/06/25 00:15:40;;;;;;;10.15;4.03;;;18.00;99.90;;;;;;4994450;28;20037;-72
2022/06/25 00:18:05;;;;;;;5.40;3.10;;;18.00;99.90;;;;;;5025834;28;20402;-72
2022/06/25 00:20:31;;;;;;;13.68;3.25;;;18.00;99.90;;;;;;5025988;28;20023;-67
2022/06/25 00:22:56;;;;;;;10.20;3.72;;;18.00;99.90;;;;;;4995288;28;20022;-67
2022/06/25 00:25:22;;;;;;;4.85;2.90;;;18.00;99.90;;;;;;4994101;28;20022;-67
2022/06/25 00:27:47;;;;;;;9.27;3.28;;;18.00;99.90;;;;;;4995039;28;20037;-67
2022/06/25 00:30:13;;;;;;;7.03;3.10;;;18.00;99.90;;;;;;4994268;28;20029;-67
2022/06/25 00:32:38;;;;;;;5.97;2.60;;;18.00;99.90;;;;;;4994678;28;20049;-66
2022/06/25 00:35:04;;;;;;;6.50;3.63;;;18.00;99.90;;;;;;5010836;28;20548;-67
2022/06/25 00:37:30;;;;;;;9.57;3.17;;;17.90;99.90;;;;;;5004534;28;20486;-67
2022/06/25 00:39:56;;;;;;;3.17;2.88;;;17.90;99.90;;;;;;5006701;28;20368;-67
2022/06/25 00:43:05;;;;;;;7.72;3.50;;;17.80;99.90;;;;;;5004668;28;20065;-67
2022/06/25 00:45:31;;;;;;;5.90;2.83;;;17.80;99.90;;;;;;4993294;28;20038;-67
2022/06/25 00:47:56;;;;;;;7.05;3.58;;;18.50;99.90;;;;;;4996281;28;20367;-67
2022/06/25 00:50:22;;;;;;;7.43;3.47;;;17.70;99.90;;;;;;4993900;28;20033;-67
2022/06/25 00:52:49;;;;;;;6.43;3.30;;;17.60;99.90;;;;;;4993822;28;20026;-67
2022/06/25 00:55:14;;;;;;;9.23;3.53;;;17.60;99.90;;;;;;4999908;28;20043;-66
2022/06/25 00:57:42;;;;;;;7.90;4.18;;;17.60;99.90;;;;;;5025465;28;20034;-66
2022/06/25 01:00:12;;;;;;;10.25;3.75;;;17.60;99.90;;;;;;5003537;28;20034;-66
2022/06/25 01:02:39;;;;;;;9.75;4.53;;;17.60;99.90;;;;;;5002490;28;20030;-67
2022/06/25 01:05:06;;;;;;;6.88;4.13;;;17.60;99.90;;;;;;4992503;28;20026;-67
2022/06/25 01:07:32;;;;;;;5.85;3.53;;;17.60;99.90;;;;;;5000350;28;20113;-67
2022/06/25 01:09:57;;;;;;;4.00;3.63;;;17.60;99.90;;;;;;5002574;28;20050;-67
2022/06/25 01:12:23;;;;;;;5.68;3.65;;;17.60;99.90;;;;;;4993352;28;20061;-66
2022/06/25 01:15:09;;;;;;;15.15;4.28;;;18.10;99.90;;;;;;4993469;28;20447;-67
2022/06/25 01:17:48;;;;;;;5.68;3.95;;;17.50;99.90;;;;;;5000458;28;20053;-67
2022/06/25 01:20:14;;;;;;;5.45;3.70;;;17.40;99.90;;;;;;5008973;28;20486;-67
2022/06/25 01:22:39;;;;;;;6.18;4.00;;;17.40;99.90;;;;;;5001945;28;20049;-67
2022/06/25 01:25:09;;;;;;;10.13;4.00;;;17.40;99.90;;;;;;4998321;28;20472;-67
2022/06/25 01:27:34;;;;;;;5.45;4.18;;;17.40;99.90;;;;;;5008006;28;20030;-67
2022/06/25 01:33:23;;;;;;;6.78;4.45;;;17.40;99.90;;;;;;4992539;28;20521;-67
2022/06/25 01:35:49;;;;;;;8.70;4.80;;;17.40;99.90;;;;;;4994198;28;20034;-67
2022/06/25 01:38:14;;;;;;;11.02;5.57;;;17.40;99.90;;;;;;5002607;28;20104;-67
2022/06/25 01:40:40;;;;;;;7.07;5.68;;;17.40;99.90;;;;;;4995017;28;20030;-68
2022/06/25 01:43:05;;;;;;;8.35;4.75;;;17.50;99.90;;;;;;4973642;28;20415;-67
2022/06/25 01:45:32;;;;;;;7.07;4.78;;;18.20;99.90;;;;;;4992152;28;20491;-67
2022/06/25 01:47:58;;;;;;;6.15;4.95;;;17.30;99.90;;;;;;4995917;28;20110;-67
2022/06/25 01:50:24;;;;;;;8.20;5.03;;;17.30;99.90;;;;;;4895679;28;20125;-67
2022/06/25 01:52:50;;;;;;;5.88;4.60;;;17.20;99.90;;;;;;4995883;28;20041;-68
2022/06/25 01:55:16;;;;;;;9.65;5.22;;;17.20;99.90;;;;;;5008770;28;20018;-68
2022/06/25 01:57:42;;;;;;;6.18;4.25;;;17.20;99.90;;;;;;4995347;28;20118;-68
2022/06/25 02:00:10;;;;;;;9.35;5.22;;;17.20;99.90;;;;;;5011089;28;20053;-68
2022/06/25 02:02:37;;;;;;;6.63;5.13;;;17.20;99.90;;;;;;5012427;28;20049;-69
2022/06/25 02:05:04;;;;;;;13.48;5.22;;;17.20;99.90;;;;;;5009864;28;20042;-68
2022/06/25 02:07:29;;;;;;;10.88;4.97;;;17.20;99.90;;;;;;4993264;28;20088;-68
2022/06/25 02:09:55;;;;;;;6.53;5.53;;;17.20;99.90;;;;;;4994056;28;20109;-68
2022/06/25 02:12:20;;;;;;;10.57;5.53;;;17.20;99.90;;;;;;4996917;28;20093;-68
2022/06/25 02:14:46;;;;;;;10.88;5.75;;;17.10;99.90;;;;;;4997734;28;20470;-68
2022/06/25 02:17:12;;;;;;;7.30;5.72;;;17.10;99.90;;;;;;5015041;28;20034;-68
2022/06/25 02:19:37;;;;;;;10.05;5.35;;;17.10;99.90;;;;;;5014706;28;20030;-68
2022/06/25 02:22:03;;;;;;;10.35;5.60;;;17.10;99.90;;;;;;5009468;28;20030;-67
2022/06/25 02:24:28;;;;;;;15.30;6.22;;;17.10;99.90;;;;;;4998605;28;20383;-68
2022/06/25 02:26:54;;;;;;;7.82;5.78;;;17.40;99.90;;;;;;4996387;28;20054;-68
2022/06/25 02:29:19;;;;;;;8.82;6.28;;;17.10;99.90;;;;;;5013556;28;20462;-68
2022/06/25 02:31:45;;;;;;;12.00;6.07;;;17.10;99.90;;;;;;5015766;28;20666;-67
2022/06/25 02:34:10;;;;;;;11.23;6.60;;;17.10;99.90;;;;;;5003288;28;20157;-68
2022/06/25 02:36:36;;;;;;;9.27;6.28;;;17.20;99.90;;;;;;4996480;28;20117;-68
2022/06/25 02:39:01;;;;;;;12.55;6.97;;;17.10;99.90;;;;;;4996404;28;20113;-67
2022/06/25 02:41:27;;;;;;;14.20;6.97;;;17.10;99.90;;;;;;4998551;28;20034;-68
2022/06/25 02:43:52;;;;;;;15.20;7.70;;;17.10;99.90;;;;;;4996248;28;20478;-67
2022/06/25 02:46:18;;;;;;;8.15;6.35;;;17.20;99.90;;;;;;5012549;28;20029;-68
2022/06/25 02:48:43;;;;;;;9.85;6.57;;;17.10;99.90;;;;;;5002214;28;20018;-67
2022/06/25 02:51:09;;;;;;;9.20;6.80;;;17.00;99.90;;;;;;5014100;28;20037;-67
2022/06/25 02:53:34;;;;;;;11.90;6.65;;;16.90;99.90;;;;;;5005688;28;20018;-67
2022/06/25 02:58:55;;;;;;;13.50;6.72;;;16.90;99.90;;;;;;5006713;28;20403;-67
2022/06/25 03:01:24;;;;;;;13.13;7.10;;;17.00;99.90;;;;;;5003543;28;20022;-67
2022/06/25 03:03:50;;;;;;;9.77;6.75;;;16.90;99.90;;;;;;5015433;28;20502;-67
2022/06/25 03:06:15;;;;;;;9.25;7.45;;;16.90;99.90;;;;;;5013697;28;20084;-68
2022/06/25 03:08:41;;;;;;;10.05;6.43;;;16.90;99.90;;;;;;5015630;28;20374;-68
2022/06/25 03:11:07;;;;;;;11.25;7.78;;;16.90;99.90;;;;;;5015113;28;20112;-67
2022/06/25 03:13:35;;;;;;;16.48;6.90;;;16.80;99.90;;;;;;5015173;28;20018;-67
2022/06/25 03:16:01;;;;;;;11.75;6.72;;;16.80;99.90;;;;;;5014904;28;20033;-67
2022/06/25 03:18:27;;;;;;;12.82;6.97;;;16.80;99.90;;;;;;4996960;28;20037;-67
2022/06/25 03:20:52;;;;;;;9.68;7.00;;;16.80;99.90;;;;;;4995716;28;20031;-67
2022/06/25 03:23:19;;;;;;;11.18;6.97;;;16.80;99.90;;;;;;4994613;28;20031;-67
2022/06/25 03:25:45;;;;;;;13.68;6.93;;;16.80;99.90;;;;;;4996659;28;20075;-67
2022/06/25 03:28:10;;;;;;;15.90;7.53;;;16.70;99.90;;;;;;4996595;28;20038;-67
2022/06/25 03:30:36;;;;;;;10.60;7.22;;;16.80;99.90;;;;;;4996265;28;20057;-68
2022/06/25 03:33:01;;;;;;;18.20;7.57;;;16.80;99.90;;;;;;5015003;28;20122;-68
2022/06/25 03:35:27;;;;;;;17.55;6.57;;;16.70;99.90;;;;;;4998949;28;20105;-67
2022/06/25 03:37:52;;;;;;;12.63;6.50;;;16.80;99.90;;;;;;4996545;28;20101;-68
2022/06/25 03:40:18;;;;;;;7.82;6.13;;;16.80;99.90;;;;;;4995492;28;20026;-68
2022/06/25 03:42:43;;;;;;;14.00;6.50;;;16.80;99.90;;;;;;4997429;28;20054;-68
2022/06/25 03:45:09;;;;;;;12.65;7.35;;;16.80;99.90;;;;;;5014423;28;20478;-67
2022/06/25 03:47:35;;;;;;;14.25;7.03;;;16.90;99.90;;;;;;5013617;28;20030;-68
2022/06/25 03:50:00;;;;;;;10.23;6.00;;;16.90;99.90;;;;;;5009663;28;20038;-68
2022/06/25 03:52:26;;;;;;;8.05;6.40;;;16.90;99.90;;;;;;5014273;28;20092;-68
2022/06/25 03:54:51;;;;;;;8.18;5.82;;;16.90;99.90;;;;;;4997601;28;20398;-68
2022/06/25 03:57:17;;;;;;;10.63;6.05;;;17.00;99.90;;;;;;4996454;28;20386;-68
2022/06/25 03:59:42;;;;;;;8.25;5.95;;;16.90;99.90;;;;;;5011894;28;20049;-68
2022/06/25 04:02:08;;;;;;;10.82;5.47;;;16.90;99.90;;;;;;5012141;28;20505;-68
2022/06/25 04:04:33;;;;;;;11.00;6.28;;;17.60;99.90;;;;;;5005020;28;20058;-68
2022/06/25 04:06:59;;;;;;;10.68;6.07;;;16.90;99.90;;;;;;4994381;28;20031;-66
2022/06/25 04:09:24;;;;;;;11.20;5.20;;;17.00;99.90;;;;;;4995868;28;20033;-67
2022/06/25 04:11:50;;;;;;;9.00;4.88;;;17.20;99.90;;;;;;4994773;28;20398;-67
2022/06/25 04:14:15;;;;;;;9.63;4.30;;;17.60;99.90;;;;;;4994621;28;20027;-67
2022/06/25 04:16:41;;;;;;;13.13;4.50;;;17.80;99.90;;;;;;5003577;28;20100;-67
2022/06/25 04:19:06;;;;;;;7.28;4.47;;;17.90;99.90;;;;;;5001972;28;20092;-68
2022/06/25 04:21:32;;;;;;;8.63;4.22;;;18.00;99.90;;;;;;5001499;28;20132;-67
2022/06/25 04:23:58;;;;;;;9.20;4.40;;;18.30;99.90;;;;;;5006167;28;20464;-67
2022/06/25 04:26:23;;;;;;;7.90;3.72;;;18.40;99.90;;;;;;4994411;28;20045;-68
2022/06/25 04:29:04;;;;;;;7.13;4.00;;;18.30;99.90;;;;;;4995565;28;20018;-67
2022/06/25 04:31:30;;;;;;;6.75;3.40;;;18.40;99.90;;;;;;5010834;28;20037;-68
2022/06/25 04:33:56;;;;;;;8.93;3.30;;;18.50;99.90;;;;;;5013664;28;20029;-68
2022/06/25 04:36:22;;;;;;;8.73;3.67;;;18.70;99.90;;;;;;5013829;28;20402;-68
2022/06/25 04:38:48;;;;;;;5.97;3.75;;;18.70;99.90;;;;;;5013184;28;20030;-67
2022/06/25 04:41:13;;;;;;;10.40;3.50;;;18.60;99.90;;;;;;5025572;28;20034;-67
2022/06/25 04:43:40;;;;;;;5.68;3.80;;;18.60;99.90;;;;;;4994189;28;20483;-67
2022/06/25 04:46:05;;;;;;;6.68;4.70;;;18.60;99.90;;;;;;4994005;28;20085;-67
2022/06/25 04:48:31;;;;;;;8.77;4.43;;;18.40;99.90;;;;;;4993987;28;20029;-67
2022/06/25 04:50:56;;;;;;;14.43;4.80;;;18.10;99.90;;;;;;4994663;28;20031;-67
2022/06/25 04:53:22;;;;;;;12.95;5.07;;;18.10;99.90;;;;;;4994190;28;20030;-66
2022/06/25 04:55:47;;;;;;;9.43;4.30;;;18.00;99.90;;;;;;4993797;28;20494;-66
2022/06/25 04:58:13;;;;;;;7.10;4.30;;;18.10;99.90;;;;;;5013253;28;20034;-66
2022/06/25 05:00:38;;;;;;;5.38;4.15;;;18.30;99.90;;;;;;5012834;28;20560;-67
2022/06/25 05:03:04;;;;;;;10.40;3.80;;;18.20;99.90;;;;;;5012893;28;20567;-68
2022/06/25 05:05:29;;;;;;;4.57;3.38;;;18.60;99.90;;;;;;5013181;28;20112;-68
2022/06/25 05:07:55;;;;;;;4.60;3.30;;;18.60;99.90;;;;;;5013487;28;20018;-68
2022/06/25 05:10:20;;;;;;;9.60;3.88;;;19.10;99.90;;;;;;5005622;28;20382;-68
2022/06/25 05:15:30;;;;;;;12.63;5.53;;;19.80;99.90;;;;;;4993718;28;20037;-68
2022/06/25 05:17:56;;;;;;;10.52;4.38;;;19.70;99.90;;;;;;4993576;28;20026;-69
2022/06/25 05:20:21;;;;;;;8.88;4.50;;;19.90;99.90;;;;;;4997674;28;20026;-68
2022/06/25 05:22:47;;;;;;;10.82;4.50;;;20.00;99.90;;;;;;5013304;28;20026;-69
2022/06/25 05:25:12;;;;;;;9.05;3.90;;;20.10;99.90;;;;;;4999078;28;20035;-69
2022/06/25 05:27:38;;;;;;;10.18;4.13;;;19.90;99.90;;;;;;4993544;28;20018;-69
2022/06/25 05:30:05;;;;;;;7.65;4.60;;;20.10;99.90;;;;;;4993379;28;20014;-69
2022/06/25 05:32:31;;;;;;;10.00;6.30;;;20.00;99.90;;;;;;5012237;28;20501;-68
2022/06/25 05:34:57;;;;;;;11.30;4.28;;;19.80;99.90;;;;;;5013062;28;20033;-70
2022/06/25 05:37:23;;;;;;;10.75;3.83;;;19.80;99.90;;;;;;5013019;28;20474;-78
2022/06/25 05:39:49;;;;;;;8.52;4.03;;;20.40;99.90;;;;;;5012748;28;20037;-76
2022/06/25 05:42:14;;;;;;;10.18;4.50;;;20.70;99.90;;;;;;4998342;28;20521;-77
2022/06/25 05:44:40;;;;;;;7.68;3.53;;;21.50;99.90;;;;;;5025185;28;20034;-75
2022/06/25 05:47:05;;;;;;;11.57;4.80;;;22.30;99.90;;;;;;4997074;28;20109;-75
2022/06/25 05:49:31;;;;;;;8.05;4.65;;;22.90;98.30;;;;;;5030326;28;20466;-75
2022/06/25 05:51:56;;;;;;;10.13;4.68;;;23.10;97.60;;;;;;5007115;28;20109;-74
2022/06/25 05:54:22;;;;;;;6.45;4.68;;;23.20;96.70;;;;;;4997295;28;20110;-74
2022/06/25 05:56:47;;;;;;;6.68;4.20;;;22.40;98.50;;;;;;4993066;28;20439;-75
2022/06/25 05:59:13;;;;;;;9.60;4.00;;;23.20;96.70;;;;;;5027023;28;20026;-75
2022/06/25 06:01:38;;;;;;;6.68;3.60;;;23.20;97.40;;;;;;5001224;28;20026;-75
2022/06/25 06:04:05;;;;;;;10.10;3.75;;;24.00;97.00;;;;;;5000897;28;20078;-75
2022/06/25 06:06:31;;;;;;;12.00;4.80;;;23.40;97.40;;;;;;4997135;28;20080;-77
2022/06/25 06:08:56;;;;;;;10.73;3.80;;;23.30;96.60;;;;;;5028259;28;20471;-77
2022/06/25 06:11:22;;;;;;;4.60;2.72;;;23.30;96.50;;;;;;4997149;28;20014;-75
2022/06/25 06:13:47;;;;;;;6.28;2.63;;;24.70;91.70;;;;;;5015018;28;20053;-78
2022/06/25 06:16:13;;;;;;;6.75;2.38;;;25.40;91.40;;;;;;5016461;28;20080;-75
2022/06/25 06:18:38;;;;;;;6.82;3.45;;;25.70;89.40;;;;;;5001656;28;20026;-74
2022/06/25 06:21:04;;;;;;;12.88;3.10;;;24.70;91.20;;;;;;4996815;28;20049;-76
2022/06/25 06:23:30;;;;;;;6.90;3.25;;;24.50;92.10;;;;;;4997000;28;20530;-76
2022/06/25 06:25:55;;;;;;;6.40;2.47;;;25.00;90.50;;;;;;5027955;28;20027;-77
2022/06/25 06:28:21;;;;;;;6.30;3.20;;;25.50;87.50;;;;;;4995522;28;20023;-79
2022/06/25 06:30:46;;;;;;;13.95;2.58;;;26.10;85.30;;;;;;4995629;28;20033;-77
2022/06/25 06:33:12;;;;;;;7.07;2.55;;;26.30;81.90;;;;;;5005683;28;20018;-79
2022/06/25 06:35:40;;;;;;;7.88;3.15;;;24.20;90.90;;;;;;5005648;28;20371;-78
2022/06/25 06:38:06;;;;;;;7.80;2.58;;;23.50;93.00;;;;;;5014963;28;20022;-78
2022/06/25 06:40:32;;;;;;;9.07;2.45;;;22.80;93.50;;;;;;5014997;28;20433;-80
2022/06/25 06:42:57;;;;;;;6.85;2.33;;;24.00;91.50;;;;;;5012976;28;20118;-79
2022/06/25 06:45:23;;;;;;;8.85;1.92;;;24.30;89.60;;;;;;5011052;28;20507;-79
2022/06/25 06:47:48;;;;;;;8.45;2.55;;;24.00;90.20;;;;;;4995218;28;20383;-79
2022/06/25 06:50:14;;;;;;;5.95;1.80;;;25.30;84.50;;;;;;4996192;28;20054;-75
2022/06/25 06:52:40;;;;;;;7.20;2.30;;;25.10;85.40;;;;;;4995131;28;20057;-75
2022/06/25 06:55:06;;;;;;;8.82;2.70;;;27.00;75.80;;;;;;4997275;28;20034;-75
2022/06/25 06:57:32;;;;;;;6.80;2.20;;;24.50;84.10;;;;;;5015835;28;20030;-76
2022/06/25 07:00:00;;;;;;;8.27;2.10;;;25.60;82.20;;;;;;5007635;28;20034;-75
2022/06/25 07:02:29;;;;;;;5.93;1.85;;;26.30;76.00;;;;;;4998836;28;20121;-72
2022/06/25 07:05:01;;;;;;;11.00;1.77;;;26.60;76.20;;;;;;4994024;28;20096;-74
2022/06/25 07:07:26;;;;;;;12.00;3.33;;;26.80;71.20;;;;;;4998700;28;20038;-74
2022/06/25 07:09:54;;;;;;;9.95;2.63;;;25.30;77.70;;;;;;5026881;28;20030;-75
2022/06/25 07:12:20;;;;;;;8.90;2.30;;;24.90;86.70;;;;;;5026167;28;20688;-74
2022/06/25 07:14:46;;;;;;;8.75;2.47;;;24.70;83.00;;;;;;5000229;28;20072;-75
2022/06/25 07:17:11;;;;;;;6.20;2.40;;;25.40;85.00;;;;;;5008080;28;20462;-74
2022/06/25 07:19:37;;;;;;;11.63;2.50;;;25.00;84.10;;;;;;5015073;28;20025;-75
2022/06/25 07:22:02;;;;;;;6.28;2.10;;;25.10;84.40;;;;;;5008781;28;20161;-76
2022/06/25 07:24:28;;;;;;;9.73;2.53;;;25.80;76.40;;;;;;5008038;28;20033;-75
2022/06/25 07:26:53;;;;;;;8.82;1.80;;;26.10;71.00;;;;;;5014769;28;20026;-74
2022/06/25 07:29:25;;;;;;;5.28;1.70;;;25.40;75.80;;;;;;5000023;28;20027;-77
2022/06/25 07:35:14;;;;;;;7.90;2.13;;;27.00;68.60;;;;;;5001213;28;21718;-74
2022/06/25 07:37:42;;;;;;;5.68;1.88;;;27.30;63.60;;;;;;4996849;28;20067;-75
2022/06/25 07:40:09;;;;;;;5.38;1.95;;;27.50;65.70;;;;;;4993609;28;20033;-80
2022/06/25 07:43:04;;;;;;;5.72;1.58;;;27.20;65.50;;;;;;4994893;28;20030;-77
2022/06/25 07:45:46;;;;;;;8.60;2.00;;;27.00;66.40;;;;;;5013599;28;20044;-77
2022/06/25 07:48:21;;;;;;;4.43;1.55;;;27.50;65.30;;;;;;5002483;28;20034;-75
2022/06/25 07:53:34;;;;;;;6.70;2.10;;;26.50;69.20;;;;;;4996631;28;19916;-73
2022/06/25 07:55:59;;;;;;;6.15;2.25;;;25.20;76.30;;;;;;4997004;28;20026;-72
2022/06/25 07:58:25;;;;;;;5.65;2.05;;;24.90;80.80;;;;;;4994033;28;20403;-71
2022/06/25 08:00:51;;;;;;;4.70;1.80;;;27.20;68.00;;;;;;5003646;28;20037;-74
2022/06/25 08:03:17;;;;;;;11.30;1.92;;;27.70;64.70;;;;;;5013613;28;20536;-74
2022/06/25 08:05:42;;;;;;;5.80;1.58;;;27.40;64.20;;;;;;4997218;28;20054;-73
2022/06/25 08:08:08;;;;;;;12.90;2.15;;;25.40;70.70;;;;;;4993772;28;20602;-74
2022/06/25 08:10:33;;;;;;;5.72;2.58;;;26.70;69.40;;;;;;5002293;28;20113;-75
2022/06/25 08:12:59;;;;;;;3.50;1.60;;;26.70;68.50;;;;;;5012376;28;20106;-75
2022/06/25 08:15:24;;;;;;;8.80;2.22;;;26.80;63.00;;;;;;5001415;28;20088;-81
2022/06/25 08:17:50;;;;;;;7.95;1.70;;;27.90;62.00;;;;;;5013659;28;20034;-78
2022/06/25 08:20:16;;;;;;;4.70;1.52;;;26.50;65.60;;;;;;5012586;28;20030;-78
2022/06/25 08:22:42;;;;;;;10.95;2.05;;;26.10;65.30;;;;;;5013995;28;20026;-77
2022/06/25 08:25:35;;;;;;;9.35;1.80;;;27.30;65.60;;;;;;5004885;28;20503;-76
2022/06/25 08:28:01;;;;;;;6.53;1.42;;;26.00;68.50;;;;;;5025802;28;20026;-75
2022/06/25 08:30:26;;;;;;;4.07;1.70;;;27.30;65.60;;;;;;5025562;28;20025;-76
2022/06/25 08:32:53;;;;;;;8.88;1.67;;;27.50;61.20;;;;;;4992925;28;20538;-76
2022/06/25 08:35:30;;;;;;;2.25;1.50;;;25.90;66.80;;;;;;4993637;28;20046;-75
2022/06/25 08:37:56;;;;;;;6.60;2.25;;;25.60;69.10;;;;;;4992701;28;20033;-76
2022/06/25 08:40:21;;;;;;;11.68;2.22;;;25.20;71.00;;;;;;4993747;28;20030;-76
2022/06/25 08:42:48;;;;;;;5.38;2.20;;;25.60;75.50;;;;;;4993290;28;20029;-75
2022/06/25 08:45:15;;;;;;;12.05;2.40;;;25.60;72.50;;;;;;4993358;28;20474;-76
2022/06/25 08:47:48;;;;;;;4.60;2.10;;;26.20;72.10;;;;;;4991870;28;20490;-75
2022/06/25 08:50:16;;;;;;;2.10;1.17;;;25.00;73.40;;;;;;5004548;28;20095;-76
2022/06/25 08:52:46;;;;;;;8.73;1.50;;;24.40;76.10;;;;;;4996640;28;20109;-74
2022/06/25 08:55:14;;;;;;;8.15;1.67;;;24.80;72.20;;;;;;5024137;28;20015;-74
2022/06/25 08:57:41;;;;;;;7.68;1.38;;;25.70;66.80;;;;;;5008048;28;20144;-74
2022/06/25 09:00:09;;;;;;;3.45;1.30;;;25.70;66.10;;;;;;4990839;28;20030;-74
2022/06/25 09:02:36;;;;;;;7.93;2.08;;;26.50;64.20;;;;;;4992376;28;20027;-73
2022/06/25 09:05:02;;;;;;;5.85;1.65;;;25.80;63.60;;;;;;4992887;28;20030;-75
2022/06/25 09:07:27;;;;;;;10.20;2.00;;;26.40;62.80;;;;;;5008043;28;20030;-74
2022/06/25 09:09:53;;;;;;;5.50;1.60;;;26.90;61.20;;;;;;4993526;28;20046;-73
2022/06/25 09:12:18;;;;;;;6.45;1.70;;;26.60;60.20;;;;;;4994315;28;20494;-72
2022/06/25 09:14:44;;;;;;;5.15;1.65;;;27.40;59.90;;;;;;5024944;28;20018;-73
2022/06/25 09:17:12;;;;;;;5.57;1.60;;;27.90;58.40;;;;;;5010573;28;20034;-74
2022/06/25 09:19:48;;;;;;;6.72;2.03;;;30.20;52.10;;;;;;4999976;28;20112;-71
2022/06/25 09:22:17;;;;;;;5.15;1.58;;;28.90;56.20;;;;;;4994751;28;20170;-73
2022/06/25 09:24:57;;;;;;;4.38;1.95;;;27.10;57.00;;;;;;5007701;28;20056;-69
2022/06/25 09:27:36;;;;;;;7.50;2.00;;;25.70;60.70;;;;;;5012685;28;20025;-68
2022/06/25 09:30:12;;;;;;;6.70;2.10;;;26.10;59.90;;;;;;4999372;28;20026;-69
2022/06/25 09:32:41;;;;;;;9.48;2.30;;;25.60;61.80;;;;;;5025329;28;20035;-68
2022/06/25 09:35:07;;;;;;;6.05;1.80;;;25.50;64.20;;;;;;4998290;28;20474;-69
2022/06/25 09:37:33;;;;;;;8.60;2.53;;;26.90;60.90;;;;;;5024340;28;20034;-67
2022/06/25 09:39:58;;;;;;;5.35;1.73;;;26.40;61.50;;;;;;4995944;28;20046;-70
2022/06/25 09:42:28;;;;;;;3.90;1.55;;;25.40;63.30;;;;;;5025764;28;20046;-69
2022/06/25 09:45:06;;;;;;;8.70;2.00;;;25.30;65.00;;;;;;4991959;28;20050;-68
2022/06/25 09:47:34;;;;;;;5.13;1.75;;;24.80;66.50;;;;;;4995434;28;20486;-68
2022/06/25 09:50:06;;;;;;;12.55;2.05;;;24.30;70.50;;;;;;5007620;28;20049;-69
2022/06/25 09:52:32;;;;;;;5.53;1.65;;;24.50;71.40;;;;;;5012450;28;20037;-67
2022/06/25 09:54:58;;;;;;;9.73;2.20;;;24.40;73.00;;;;;;5007951;28;20015;-67
2022/06/25 09:57:23;;;;;;;4.80;2.15;;;24.10;74.40;;;;;;4992800;28;20116;-66
2022/06/25 09:59:52;;;;;;;6.78;1.60;;;24.30;73.30;;;;;;5008738;28;20026;-67
2022/06/25 10:02:18;;;;;;;4.47;1.90;;;24.40;70.80;;;;;;5023013;28;20207;-68
2022/06/25 10:04:44;;;;;;;8.25;1.60;;;24.60;69.50;;;;;;5026306;28;20137;-68
2022/06/25 10:07:10;;;;;;;10.27;2.15;;;25.20;69.10;;;;;;4993502;28;20038;-66
2022/06/25 10:09:36;;;;;;;7.00;2.25;;;25.30;68.00;;;;;;4992144;28;20026;-69
2022/06/25 10:12:26;;;;;;;6.40;1.70;;;25.70;67.40;;;;;;4976011;28;20496;-67
2022/06/25 10:14:51;;;;;;;7.30;2.15;;;25.40;68.40;;;;;;4999835;28;20034;-69
2022/06/25 10:17:51;;;;;;;4.35;1.55;;;26.50;62.60;;;;;;4995549;28;20390;-66
2022/06/25 10:23:45;;;;;;;5.25;1.70;;;26.30;61.60;;;;;;4998150;28;20029;-67
2022/06/25 10:26:11;;;;;;;7.70;1.83;;;27.90;58.50;;;;;;4997889;28;20331;-68
2022/06/25 10:28:36;;;;;;;6.28;2.00;;;27.80;59.00;;;;;;4994384;28;20041;-67
2022/06/25 10:31:12;;;;;;;4.10;1.80;;;27.90;55.60;;;;;;5001818;28;20027;-69
2022/06/25 10:34:02;;;;;;;5.53;2.08;;;28.20;54.90;;;;;;5027671;28;20061;-67
2022/06/25 10:36:44;;;;;;;9.65;2.17;;;28.20;56.80;;;;;;4999661;28;20487;-67
2022/06/25 10:39:28;;;;;;;8.23;2.22;;;27.00;60.10;;;;;;5004016;28;20029;-67
2022/06/25 10:45:15;;;;;;;10.85;2.17;;;25.90;63.50;;;;;;4999376;28;20045;-68
2022/06/25 10:47:42;;;;;;;5.63;1.65;;;26.50;60.30;;;;;;5002926;28;20041;-67
2022/06/25 10:50:30;;;;;;;8.88;1.95;;;26.30;60.80;;;;;;5003019;28;20417;-64
2022/06/25 10:53:05;;;;;;;6.00;1.30;;;25.80;62.40;;;;;;5006680;28;20097;-66
2022/06/25 10:55:34;;;;;;;7.07;1.30;;;26.60;61.90;;;;;;5003599;28;20038;-66
2022/06/25 10:58:12;;;;;;;8.63;2.47;;;26.80;60.10;;;;;;5005745;28;20030;-67
2022/06/25 11:01:16;;;;;;;6.38;1.60;;;26.30;60.20;;;;;;5009420;28;20401;-66
2022/06/25 11:03:42;;;;;;;5.90;1.40;;;25.60;62.20;;;;;;4998779;28;20549;-66
2022/06/25 11:06:21;;;;;;;5.65;1.63;;;25.70;61.60;;;;;;5009032;28;20033;-66
2022/06/25 11:08:47;;;;;;;7.30;1.92;;;26.10;60.00;;;;;;4996941;28;20076;-66
2022/06/25 11:11:13;;;;;;;3.67;1.50;;;27.50;56.70;;;;;;5001010;28;20030;-67
2022/06/25 11:13:42;;;;;;;5.78;1.73;;;26.90;57.00;;;;;;5023061;28;20027;-67
2022/06/25 11:16:17;;;;;;;4.00;1.60;;;27.80;56.70;;;;;;5015007;28;20030;-66
2022/06/25 11:18:56;;;;;;;3.80;1.73;;;26.70;58.40;;;;;;4995041;28;20113;-67
2022/06/25 11:21:41;;;;;;;3.03;1.35;;;26.40;58.90;;;;;;4995307;28;20405;-66
2022/06/25 11:24:21;;;;;;;5.78;1.80;;;26.90;58.00;;;;;;5001455;28;20034;-67
2022/06/25 11:29:40;;;;;;;2.95;1.27;;;25.40;61.20;;;;;;5013720;28;20037;-66
2022/06/25 11:32:07;;;;;;;6.30;1.88;;;25.50;62.40;;;;;;5046213;28;20025;-67
2022/06/25 11:34:32;;;;;;;4.50;1.35;;;25.20;63.70;;;;;;5013793;28;20026;-67
2022/06/25 11:37:24;;;;;;;3.28;1.30;;;26.50;59.10;;;;;;4994941;28;20106;-66
2022/06/25 11:39:50;;;;;;;7.03;1.70;;;26.90;58.40;;;;;;4974390;28;20117;-66
2022/06/25 11:42:16;;;;;;;5.97;1.80;;;26.20;61.50;;;;;;4994155;28;20457;-65
2022/06/25 11:44:50;;;;;;;4.40;1.63;;;25.60;62.90;;;;;;5032453;28;20061;-67
2022/06/25 11:47:23;;;;;;;4.70;1.73;;;25.40;63.60;;;;;;5026469;28;20062;-66
2022/06/25 11:49:49;;;;;;;3.72;1.42;;;25.80;63.70;;;;;;4994765;28;20034;-66
2022/06/25 11:52:15;;;;;;;5.28;1.40;;;26.20;63.70;;;;;;4997133;28;20027;-68
2022/06/25 11:54:42;;;;;;;6.25;1.80;;;27.00;59.40;;;;;;5012679;28;20360;-66
2022/06/25 11:57:14;;;;;;;4.90;1.73;;;26.80;58.50;;;;;;5003215;28;20022;-67
2022/06/25 11:59:39;;;;;;;5.45;1.70;;;25.80;59.80;;;;;;5014316;28;20034;-66
2022/06/25 12:02:23;;;;;;;3.70;1.42;;;25.60;61.90;;;;;;5002665;28;20036;-68
2022/06/25 12:04:57;;;;;;;5.80;1.52;;;26.30;60.60;;;;;;5013853;28;20076;-67
2022/06/25 12:07:23;;;;;;;3.90;1.73;;;26.50;61.70;;;;;;5001796;28;20030;-67
2022/06/25 12:09:51;;;;;;;6.25;1.45;;;26.70;60.40;;;;;;5008039;28;20803;-67
2022/06/25 12:12:17;;;;;;;3.40;1.40;;;27.40;58.00;;;;;;5008804;28;20114;-67
2022/06/25 12:14:42;;;;;;;4.22;1.52;;;26.60;59.10;;;;;;5009645;28;20109;-67
2022/06/25 12:17:10;;;;;;;8.70;2.45;;;26.20;59.40;;;;;;5009577;28;20105;-68
2022/06/25 12:19:45;;;;;;;7.80;2.00;;;26.30;59.70;;;;;;4994017;28;20035;-66
2022/06/25 12:22:27;;;;;;;5.38;1.50;;;26.90;58.30;;;;;;4994143;28;20486;-67
2022/06/25 12:24:56;;;;;;;8.02;1.50;;;27.20;58.40;;;;;;4992886;28;20030;-67
2022/06/25 12:27:22;;;;;;;1.98;1.25;;;26.90;58.40;;;;;;4994179;28;20109;-68
2022/06/25 12:29:48;;;;;;;7.38;1.80;;;26.50;59.50;;;;;;4993209;28;20058;-67
2022/06/25 12:32:14;;;;;;;4.38;1.52;;;26.60;59.50;;;;;;4993028;28;20027;-67
2022/06/25 12:34:50;;;;;;;7.03;1.95;;;26.20;62.30;;;;;;4994091;28;20525;-67
2022/06/25 12:37:32;;;;;;;5.65;1.55;;;26.60;60.70;;;;;;4994067;28;20045;-67
2022/06/25 12:39:59;;;;;;;9.05;2.25;;;27.20;59.90;;;;;;4993028;28;20030;-67
2022/06/25 12:42:33;;;;;;;4.57;1.45;;;27.00;59.20;;;;;;4993947;28;20034;-67
2022/06/25 12:44:58;;;;;;;7.45;2.42;;;26.90;59.00;;;;;;4992679;28;20550;-68
2022/06/25 12:47:24;;;;;;;7.53;2.53;;;27.40;60.10;;;;;;4992603;28;20042;-67
2022/06/25 12:49:56;;;;;;;5.63;1.50;;;27.10;59.90;;;;;;4992815;28;20391;-67
2022/06/25 12:52:34;;;;;;;4.22;1.67;;;26.40;60.40;;;;;;4992562;28;20030;-67
2022/06/25 12:54:59;;;;;;;5.82;1.80;;;26.40;61.40;;;;;;4993275;28;20030;-68
2022/06/25 12:57:32;;;;;;;4.50;1.25;;;26.70;58.80;;;;;;4982928;28;20398;-68
2022/06/25 12:59:59;;;;;;;3.30;1.35;;;26.00;61.10;;;;;;4981421;28;20038;-68
2022/06/25 13:02:24;;;;;;;5.28;1.52;;;26.30;61.80;;;;;;4974190;28;20081;-68
2022/06/25 13:04:50;;;;;;;9.10;1.98;;;26.30;60.20;;;;;;4974180;28;20070;-67
2022/06/25 13:07:16;;;;;;;6.00;1.90;;;26.40;63.40;;;;;;4974373;28;20023;-67
2022/06/25 13:09:42;;;;;;;5.90;1.85;;;26.50;63.30;;;;;;4974336;28;20084;-68
2022/06/25 13:12:30;;;;;;;8.57;2.08;;;26.00;63.50;;;;;;4985004;28;20033;-69
2022/06/25 13:14:56;;;;;;;2.15;1.35;;;25.70;63.60;;;;;;5011326;28;20030;-68